Terminal Aerodrome Forecast
Issued by NWS Omaha/Valley, NE

Home | Current Version | Previous Version | Text Only | Print | Product List | Glossary On
Versions: 1 2 3 4 5 6 7 8 9 10 11 12 13 14 15 16 17 18 19 20 21
000
FTUS43 KOAX 242320
TAFOMA
TAF
KOMA 242320Z 2500/2524 35010KT P6SM FEW090 BKN250
     FM250200 VRB05KT P6SM SKC
     FM251200 16008KT P6SM BKN120
     FM251800 23012G20KT P6SM FEW150
     FM252300 VRB05KT P6SM BKN120=

USA.gov is the U.S. government's official web portal to all federal, state and local government web resources and services.